createdAt,value
2018-01-18T00:00:53.342Z,97104.03
2018-01-18T00:01:56.338Z,97098.25
2018-01-18T00:02:59.428Z,97088.39
2018-01-18T00:04:02.518Z,97094.20
2018-01-18T00:05:05.507Z,97088.63
2018-01-18T00:06:08.516Z,97086.66
2018-01-18T00:07:11.410Z,97091.09
2018-01-18T00:08:14.373Z,97081.70
2018-01-18T00:09:17.308Z,97087.48
2018-01-18T00:10:20.688Z,97088.25
2018-01-18T00:11:23.606Z,97093.84
2018-01-18T00:12:26.541Z,97086.34
2018-01-18T00:13:29.538Z,97086.14
2018-01-18T00:14:32.559Z,97090.19
2018-01-18T00:15:35.577Z,97083.67
2018-01-18T00:16:38.941Z,97079.63
2018-01-18T00:17:41.838Z,97077.14
2018-01-18T00:18:44.793Z,97084.26
2018-01-18T00:19:47.716Z,97074.82
2018-01-18T00:20:50.672Z,97083.45
2018-01-18T00:21:53.613Z,97081.14
2018-01-18T00:22:57.023Z,97072.66
2018-01-18T00:23:59.964Z,97075.75
2018-01-18T00:25:02.892Z,97065.55
2018-01-18T00:26:05.823Z,97057.30
2018-01-18T00:27:08.792Z,97050.72
2018-01-18T00:28:11.754Z,97053.20
2018-01-18T00:29:15.184Z,97056.30
2018-01-18T00:30:18.110Z,97052.49
2018-01-18T00:31:21.066Z,97056.93
2018-01-18T00:32:24.002Z,97050.20
2018-01-18T00:33:27.031Z,97053.42
2018-01-18T00:34:29.980Z,97051.91
2018-01-18T00:35:34.139Z,97053.08
2018-01-18T00:36:37.103Z,97054.23
2018-01-18T00:37:40.071Z,97054.19
2018-01-18T00:38:42.986Z,97046.92
2018-01-18T00:39:45.893Z,97054.61
2018-01-18T00:40:48.802Z,97051.92
2018-01-18T00:41:52.107Z,97049.62
2018-01-18T00:42:55.013Z,97038.64
2018-01-18T00:43:57.908Z,97041.29
2018-01-18T00:45:00.846Z,97058.61
2018-01-18T00:46:03.764Z,97042.06
2018-01-18T00:47:06.644Z,97027.81
2018-01-18T00:48:09.948Z,97048.42
2018-01-18T00:49:12.873Z,97043.41
2018-01-18T00:50:15.809Z,97044.55
2018-01-18T00:51:18.721Z,97044.55
2018-01-18T00:52:21.624Z,97040.89
2018-01-18T00:53:24.626Z,97041.86
2018-01-18T00:54:28.007Z,97039.94
2018-01-18T00:55:30.902Z,97031.90
2018-01-18T00:56:33.792Z,97028.81
2018-01-18T00:57:36.697Z,97023.76
2018-01-18T00:58:39.602Z,97030.11
2018-01-18T00:59:43.175Z,97027.02
2018-01-18T01:00:47.148Z,97030.11
2018-01-18T01:01:50.078Z,97025.31
2018-01-18T01:02:52.980Z,97026.08
2018-01-18T01:03:56.472Z,97030.70
2018-01-18T01:04:59.996Z,97028.56
2018-01-18T01:06:03.758Z,97025.47
2018-01-18T01:07:07.415Z,97018.93
2018-01-18T01:08:10.589Z,97023.36
2018-01-18T01:09:14.479Z,97013.87
2018-01-18T01:10:17.372Z,97018.30
2018-01-18T01:11:21.325Z,97019.31
2018-01-18T01:12:25.309Z,97017.39
2018-01-18T01:13:28.980Z,97024.45
2018-01-18T01:14:32.785Z,97023.89
2018-01-18T01:15:36.524Z,97019.88
2018-01-18T01:16:40.564Z,97017.97
2018-01-18T01:17:43.583Z,97021.63
2018-01-18T01:18:46.467Z,97005.21
2018-01-18T01:19:49.878Z,97010.98
2018-01-18T01:20:52.796Z,97006.17
2018-01-18T01:21:55.681Z,97011.38
2018-01-18T01:22:58.578Z,97000.63
2018-01-18T01:24:01.490Z,96997.56
2018-01-18T01:25:04.478Z,96994.11
2018-01-18T01:26:07.695Z,97000.02
2018-01-18T01:27:10.623Z,96983.66
2018-01-18T01:28:13.509Z,96993.45
2018-01-18T01:29:16.457Z,96995.00
2018-01-18T01:30:19.429Z,96984.80
2018-01-18T01:31:22.336Z,96985.56
2018-01-18T01:32:25.533Z,96993.84
2018-01-18T01:33:28.409Z,96995.94
2018-01-18T01:34:31.325Z,96997.09
2018-01-18T01:35:34.214Z,96993.25
2018-01-18T01:36:37.159Z,96986.12
2018-01-18T01:37:40.081Z,96984.98
2018-01-18T01:38:43.453Z,96982.28
2018-01-18T01:39:46.342Z,96986.73
2018-01-18T01:40:49.277Z,96979.06
2018-01-18T01:41:52.199Z,96959.95
2018-01-18T01:42:55.086Z,96959.95
2018-01-18T01:43:58.045Z,96958.22
2018-01-18T01:45:01.266Z,96951.48
2018-01-18T01:46:04.335Z,96944.19
2018-01-18T01:47:07.272Z,96940.32
2018-01-18T01:48:10.254Z,96934.53
2018-01-18T01:49:13.194Z,96935.47
2018-01-18T01:50:16.892Z,96937.61
2018-01-18T01:51:20.133Z,96934.17
2018-01-18T01:52:23.022Z,96930.94
2018-01-18T01:53:25.921Z,96927.29
2018-01-18T01:54:28.852Z,96929.60
2018-01-18T01:55:31.761Z,96932.64
2018-01-18T01:56:34.719Z,96919.39
2018-01-18T01:57:38.219Z,96921.90
2018-01-18T01:58:41.150Z,96924.20
2018-01-18T01:59:44.090Z,96923.19
2018-01-18T02:00:47.121Z,96925.54
2018-01-18T02:01:50.018Z,96908.61
2018-01-18T02:02:52.961Z,96938.03
2018-01-18T02:03:56.316Z,96924.35
2018-01-18T02:04:59.201Z,96950.92
2018-01-18T02:06:02.147Z,96942.83
2018-01-18T02:07:05.085Z,96928.59
2018-01-18T02:08:08.521Z,96939.02
2018-01-18T02:09:11.438Z,96919.16
2018-01-18T02:10:14.848Z,96929.02
2018-01-18T02:11:17.777Z,96924.40
2018-01-18T02:12:20.672Z,96923.23
2018-01-18T02:13:23.633Z,96928.05
2018-01-18T02:14:26.589Z,96916.11
2018-01-18T02:15:29.613Z,96915.08
2018-01-18T02:16:32.969Z,96919.12
2018-01-18T02:17:35.813Z,96916.84
2018-01-18T02:18:38.684Z,96906.87
2018-01-18T02:19:41.529Z,96900.13
2018-01-18T02:20:44.370Z,96902.86
2018-01-18T02:21:47.224Z,96890.33
2018-01-18T02:22:50.483Z,96892.27
2018-01-18T02:23:53.386Z,96879.57
2018-01-18T02:24:56.258Z,96881.12
2018-01-18T02:25:59.137Z,96886.69
2018-01-18T02:27:37.027Z,96882.84
2018-01-18T02:28:40.046Z,96871.13
2018-01-18T02:29:43.277Z,96872.06
2018-01-18T02:30:46.098Z,96880.05
2018-01-18T02:31:48.974Z,96872.77
2018-01-18T02:32:51.773Z,96865.70
2018-01-18T02:33:54.736Z,96869.92
2018-01-18T02:34:57.675Z,96871.66
2018-01-18T02:36:01.040Z,96869.55
2018-01-18T02:37:04.061Z,96868.02
2018-01-18T02:38:07.001Z,96862.43
2018-01-18T02:39:09.976Z,96859.16
2018-01-18T02:40:13.051Z,96855.33
2018-01-18T02:41:16.016Z,96854.55
2018-01-18T02:42:19.516Z,96850.89
2018-01-18T02:43:22.552Z,96855.71
2018-01-18T02:44:25.580Z,96858.61
2018-01-18T02:45:28.487Z,96855.19
2018-01-18T02:46:31.677Z,96859.24
2018-01-18T02:47:34.633Z,96858.28
2018-01-18T02:48:38.128Z,96847.50
2018-01-18T02:49:41.126Z,96844.80
2018-01-18T02:50:44.123Z,96842.89
2018-01-18T02:51:47.070Z,96837.89
2018-01-18T02:52:50.699Z,96837.88
2018-01-18T02:53:53.619Z,96834.82
2018-01-18T02:54:57.026Z,96834.82
2018-01-18T02:55:59.971Z,96832.52
2018-01-18T02:57:02.975Z,96829.47
2018-01-18T02:58:05.933Z,96827.16
2018-01-18T02:59:08.872Z,96830.20
2018-01-18T03:00:11.806Z,96817.67
2018-01-18T03:01:15.130Z,96812.64
2018-01-18T03:02:18.133Z,96807.48
2018-01-18T03:03:21.093Z,96807.11
2018-01-18T03:04:24.047Z,96807.29
2018-01-18T03:05:26.975Z,96797.24
2018-01-18T03:06:29.903Z,96790.88
2018-01-18T03:07:33.297Z,96790.28
2018-01-18T03:08:36.215Z,96782.95
2018-01-18T03:09:39.142Z,96776.24
2018-01-18T03:10:42.051Z,96776.23
2018-01-18T03:11:44.968Z,96779.50
2018-01-18T03:12:47.944Z,96761.61
2018-01-18T03:13:51.352Z,96754.87
2018-01-18T03:14:54.299Z,96752.94
2018-01-18T03:15:57.216Z,96761.39
2018-01-18T03:17:00.223Z,96754.79
2018-01-18T03:18:03.117Z,96747.29
2018-01-18T03:19:06.092Z,96735.97
2018-01-18T03:20:09.491Z,96725.39
2018-01-18T03:21:12.406Z,96720.01
2018-01-18T03:22:15.283Z,96710.77
2018-01-18T03:23:18.217Z,96715.92
2018-01-18T03:24:21.129Z,96705.29
2018-01-18T03:25:24.034Z,96708.34
2018-01-18T03:26:27.255Z,96718.73
2018-01-18T03:27:30.173Z,96710.84
2018-01-18T03:28:33.104Z,96702.19
2018-01-18T03:29:36.024Z,96702.56
2018-01-18T03:30:38.958Z,96700.45
2018-01-18T03:31:41.905Z,96696.02
2018-01-18T03:32:45.151Z,96703.83
2018-01-18T03:33:48.104Z,96698.66
2018-01-18T03:34:51.044Z,96703.64
2018-01-18T03:35:53.965Z,96693.75
2018-01-18T03:36:57.832Z,96695.22
2018-01-18T03:38:00.720Z,96671.72
2018-01-18T03:39:04.066Z,96679.23
2018-01-18T03:40:06.988Z,96670.75
2018-01-18T03:41:09.900Z,96674.81
2018-01-18T03:42:12.848Z,96656.33
2018-01-18T03:43:15.778Z,96659.40
2018-01-18T03:44:18.728Z,96649.38
2018-01-18T03:45:22.275Z,96662.61
2018-01-18T03:46:25.204Z,96647.42
2018-01-18T03:47:28.111Z,96653.59
2018-01-18T03:48:31.011Z,96622.92
2018-01-18T03:49:33.936Z,96623.08
2018-01-18T03:50:36.827Z,96633.50
2018-01-18T03:51:40.129Z,96609.98
2018-01-18T03:52:43.031Z,96600.01
2018-01-18T03:53:45.979Z,96595.80
2018-01-18T03:54:48.937Z,96603.34
2018-01-18T03:55:51.872Z,96589.25
2018-01-18T03:56:54.833Z,96601.17
2018-01-18T03:57:58.235Z,96586.95
2018-01-18T03:59:01.221Z,96584.11
2018-01-18T04:00:04.184Z,96588.73
2018-01-18T04:01:07.114Z,96557.54
2018-01-18T04:02:10.076Z,96569.48
2018-01-18T04:03:13.025Z,96582.58
2018-01-18T04:04:16.273Z,96561.36
2018-01-18T04:05:19.399Z,96557.36
2018-01-18T04:06:22.364Z,96566.25
2018-01-18T04:07:25.311Z,96540.69
2018-01-18T04:08:28.379Z,96541.27
2018-01-18T04:09:31.356Z,96541.67
2018-01-18T04:10:34.730Z,96549.58
2018-01-18T04:11:37.741Z,96525.51
2018-01-18T04:12:40.692Z,96519.53
2018-01-18T04:13:43.667Z,96521.28
2018-01-18T04:14:46.494Z,96501.87
2018-01-18T04:15:49.322Z,96495.72
2018-01-18T04:16:52.487Z,96490.13
2018-01-18T04:17:55.486Z,96491.88
2018-01-18T04:18:58.432Z,96483.98
2018-01-18T04:20:01.454Z,96490.20
2018-01-18T04:21:04.390Z,96479.95
2018-01-18T04:22:07.328Z,96482.47
2018-01-18T04:23:10.699Z,96462.48
2018-01-18T04:24:13.652Z,96470.82
2018-01-18T04:25:16.571Z,96447.36
2018-01-18T04:26:19.515Z,96444.28
2018-01-18T04:27:22.453Z,96426.59
2018-01-18T04:28:25.409Z,96422.77
2018-01-18T04:29:28.714Z,96418.30
2018-01-18T04:30:31.688Z,96412.34
2018-01-18T04:31:34.615Z,96402.94
2018-01-18T04:32:37.571Z,96389.67
2018-01-18T04:33:40.515Z,96393.89
2018-01-18T04:34:43.463Z,96390.09
2018-01-18T04:35:46.748Z,96396.45
2018-01-18T04:36:49.686Z,96390.86
2018-01-18T04:37:52.635Z,96378.53
2018-01-18T04:38:55.635Z,96370.09
2018-01-18T04:39:58.567Z,96385.30
2018-01-18T04:41:01.501Z,96385.67
2018-01-18T04:42:04.738Z,96381.66
2018-01-18T04:43:07.690Z,96361.23
2018-01-18T04:44:10.880Z,96365.37
2018-01-18T04:45:13.859Z,96354.23
2018-01-18T04:46:16.911Z,96358.63
2018-01-18T04:47:20.002Z,96340.41
2018-01-18T04:48:23.266Z,96332.58
2018-01-18T04:49:26.280Z,96336.21
2018-01-18T04:50:29.246Z,96324.50
2018-01-18T04:51:32.239Z,96317.94
2018-01-18T04:52:35.239Z,96310.42
2018-01-18T04:53:38.233Z,96298.48
2018-01-18T04:54:41.514Z,96290.75
2018-01-18T04:55:44.417Z,96298.30
2018-01-18T04:56:47.305Z,96284.25
2018-01-18T04:57:50.270Z,96269.69
2018-01-18T04:58:53.236Z,96253.35
2018-01-18T04:59:56.247Z,96267.38
2018-01-18T05:00:59.711Z,96255.66
2018-01-18T05:02:02.678Z,96254.22
2018-01-18T05:03:05.604Z,96254.24
2018-01-18T05:04:08.546Z,96251.34
2018-01-18T05:05:11.483Z,96237.09
2018-01-18T05:06:14.395Z,96241.52
2018-01-18T05:07:18.597Z,96247.89
2018-01-18T05:08:21.536Z,96246.90
2018-01-18T05:09:24.501Z,96228.63
2018-01-18T05:10:27.440Z,96235.42
2018-01-18T05:11:30.366Z,96231.94
2018-01-18T05:12:33.317Z,96237.47
2018-01-18T05:13:36.772Z,96214.00
2018-01-18T05:14:39.700Z,96203.05
2018-01-18T05:15:42.618Z,96215.58
2018-01-18T05:16:45.567Z,96198.98
2018-01-18T05:17:48.564Z,96195.15
2018-01-18T05:18:51.500Z,96187.33
2018-01-18T05:19:54.856Z,96188.24
2018-01-18T05:20:57.799Z,96176.88
2018-01-18T05:22:00.888Z,96168.89
2018-01-18T05:23:03.834Z,96189.04
2018-01-18T05:24:06.820Z,96168.58
2018-01-18T05:25:09.750Z,96174.87
2018-01-18T05:26:13.081Z,96170.10
2018-01-18T05:27:16.053Z,96164.80
2018-01-18T05:28:18.995Z,96164.39
2018-01-18T05:29:21.926Z,96166.32
2018-01-18T05:30:24.816Z,96159.00
2018-01-18T05:31:27.772Z,96167.72
2018-01-18T05:32:31.116Z,96147.53
2018-01-18T05:33:34.024Z,96159.62
2018-01-18T05:34:36.970Z,96152.48
2018-01-18T05:35:39.948Z,96148.70
2018-01-18T05:36:42.880Z,96162.25
2018-01-18T05:37:45.804Z,96151.83
2018-01-18T05:38:49.270Z,96149.44
2018-01-18T05:39:52.215Z,96144.31
2018-01-18T05:40:55.146Z,96141.27
2018-01-18T05:41:58.075Z,96128.14
2018-01-18T05:43:00.982Z,96135.84
2018-01-18T05:44:03.967Z,96125.31
2018-01-18T05:45:07.211Z,96134.77
2018-01-18T05:46:10.150Z,96123.41
2018-01-18T05:47:13.355Z,96119.36
2018-01-18T05:48:16.307Z,96127.06
2018-01-18T05:49:19.268Z,96125.92
2018-01-18T05:50:22.215Z,96115.94
2018-01-18T05:51:25.511Z,96121.73
2018-01-18T05:52:28.441Z,96114.56
2018-01-18T05:53:31.468Z,96129.37
2018-01-18T05:54:34.426Z,96123.90
2018-01-18T05:55:37.385Z,96126.53
2018-01-18T05:56:40.420Z,96139.21
2018-01-18T05:57:43.806Z,96108.17
2018-01-18T05:58:46.764Z,96118.39
2018-01-18T05:59:49.777Z,96106.89
2018-01-18T06:00:52.697Z,96090.55
2018-01-18T06:01:55.614Z,96110.14
2018-01-18T06:02:58.528Z,96086.56
2018-01-18T06:04:01.905Z,96083.17
2018-01-18T06:05:04.813Z,96035.99
2018-01-18T06:06:07.802Z,96087.59
2018-01-18T06:07:10.773Z,96056.16
2018-01-18T06:08:14.658Z,96091.39
2018-01-18T06:09:17.571Z,96075.52
2018-01-18T06:10:20.968Z,96050.71
2018-01-18T06:11:23.850Z,96052.44
2018-01-18T06:12:26.815Z,96023.73
2018-01-18T06:13:29.797Z,96013.16
2018-01-18T06:14:32.736Z,96059.39
2018-01-18T06:15:35.662Z,96039.02
2018-01-18T06:16:38.988Z,96041.20
2018-01-18T06:17:41.988Z,96000.91
2018-01-18T06:18:45.501Z,96003.11
2018-01-18T06:19:48.422Z,96005.19
2018-01-18T06:20:51.352Z,96011.65
2018-01-18T06:21:54.325Z,96018.59
2018-01-18T06:22:57.735Z,96006.22
2018-01-18T06:24:00.709Z,95990.09
2018-01-18T06:25:03.707Z,95991.32
2018-01-18T06:26:06.713Z,95997.33
2018-01-18T06:27:09.623Z,96007.25
2018-01-18T06:28:12.599Z,96010.47
2018-01-18T06:29:16.022Z,95986.06
2018-01-18T06:30:18.991Z,95977.25
2018-01-18T06:31:21.881Z,95992.87
2018-01-18T06:32:24.688Z,95953.96
2018-01-18T06:33:27.558Z,95956.35
2018-01-18T06:34:30.395Z,95942.42
2018-01-18T06:35:33.747Z,95968.78
2018-01-18T06:36:36.607Z,96007.83
2018-01-18T06:37:39.617Z,95915.42
2018-01-18T06:38:43.191Z,95927.16
2018-01-18T06:39:46.126Z,95952.58
2018-01-18T06:40:49.059Z,95921.47
2018-01-18T06:41:52.971Z,95915.23
2018-01-18T06:42:55.916Z,95876.33
2018-01-18T06:43:59.532Z,95895.97
2018-01-18T06:45:02.500Z,95885.35
2018-01-18T06:46:05.524Z,95882.66
2018-01-18T06:47:08.426Z,95885.56
2018-01-18T06:48:11.838Z,95871.73
2018-01-18T06:49:15.639Z,95873.01
2018-01-18T06:50:18.676Z,95869.17
2018-01-18T06:51:21.687Z,95865.59
2018-01-18T06:52:24.667Z,95872.87
2018-01-18T06:53:27.593Z,95883.48
2018-01-18T06:54:30.930Z,95842.06
2018-01-18T06:55:33.857Z,95854.63
2018-01-18T06:56:36.798Z,95850.36
2018-01-18T06:57:39.721Z,95832.91
2018-01-18T06:58:42.799Z,95830.60
2018-01-18T06:59:45.714Z,95781.64
2018-01-18T07:00:49.125Z,95864.09
2018-01-18T07:01:52.083Z,95854.02
2018-01-18T07:02:55.238Z,95788.98
2018-01-18T07:04:04.382Z,95878.50
2018-01-18T07:05:10.365Z,95854.08
2018-01-18T07:06:23.604Z,95802.08
2018-01-18T07:07:27.267Z,95839.50
2018-01-18T07:08:30.403Z,95792.86
2018-01-18T07:09:33.321Z,95834.61
2018-01-18T07:11:51.829Z,95794.66
2018-01-18T07:12:54.986Z,95815.39
2018-01-18T07:13:57.985Z,95784.16
2018-01-18T07:15:00.950Z,95731.10
2018-01-18T07:16:04.236Z,95760.80
2018-01-18T07:17:07.147Z,95800.97
2018-01-18T07:18:10.083Z,95790.42
2018-01-18T07:19:13.040Z,95807.72
2018-01-18T07:20:16.189Z,95850.20
2018-01-18T07:21:19.150Z,95764.89
2018-01-18T07:22:22.099Z,95756.37
2018-01-18T07:23:25.106Z,95769.24
2018-01-18T07:24:29.041Z,95757.05
2018-01-18T07:25:31.986Z,95781.28
2018-01-18T07:26:35.127Z,95785.92
2018-01-18T07:27:38.218Z,95810.23
2018-01-18T07:28:41.220Z,95759.40
2018-01-18T07:29:44.195Z,95752.75
2018-01-18T07:30:47.589Z,95765.15
2018-01-18T07:31:50.508Z,95730.36
2018-01-18T07:32:53.486Z,95767.44
2018-01-18T07:33:56.532Z,95759.94
2018-01-18T07:34:59.516Z,95763.89
2018-01-18T07:36:02.543Z,95767.17
2018-01-18T07:37:05.935Z,95754.93
2018-01-18T07:38:09.033Z,95748.09
2018-01-18T07:39:12.016Z,95671.34
2018-01-18T07:40:14.927Z,95722.92
2018-01-18T07:41:18.173Z,95703.56
2018-01-18T07:42:21.185Z,95736.41
2018-01-18T07:43:24.616Z,95736.74
2018-01-18T07:44:27.585Z,95718.45
2018-01-18T07:45:30.407Z,95748.58
2018-01-18T07:46:33.233Z,95769.73
2018-01-18T07:47:36.152Z,95733.20
2018-01-18T07:48:39.189Z,95757.27
2018-01-18T07:49:42.567Z,95776.80
2018-01-18T07:50:45.635Z,95719.16
2018-01-18T07:51:48.568Z,95701.02
2018-01-18T07:52:51.557Z,95725.14
2018-01-18T07:53:58.426Z,95724.17
2018-01-18T07:55:01.404Z,95723.03
2018-01-18T07:56:04.874Z,95708.89
2018-01-18T07:57:11.747Z,95688.44
2018-01-18T07:58:14.758Z,95672.26
2018-01-18T07:59:17.718Z,95696.83
2018-01-18T08:00:20.866Z,95686.14
2018-01-18T08:01:23.849Z,95676.31
2018-01-18T08:02:27.217Z,95702.34
2018-01-18T08:03:34.119Z,95704.47
2018-01-18T08:04:37.103Z,95694.78
2018-01-18T08:05:40.004Z,95712.33
2018-01-18T08:06:42.983Z,95702.30
2018-01-18T08:07:45.925Z,95697.97
2018-01-18T08:08:49.179Z,95710.50
2018-01-18T08:09:52.150Z,95690.78
2018-01-18T08:10:55.101Z,95683.41
2018-01-18T08:11:58.098Z,95698.86
2018-01-18T08:13:01.039Z,95704.31
2018-01-18T08:14:03.953Z,95708.16
2018-01-18T08:15:07.193Z,95702.05
2018-01-18T08:16:10.090Z,95682.62
2018-01-18T08:17:14.025Z,95695.80
2018-01-18T08:18:16.970Z,95675.44
2018-01-18T08:19:19.833Z,95706.34
2018-01-18T08:20:22.717Z,95685.42
2018-01-18T08:21:26.101Z,95676.84
2018-01-18T08:22:29.034Z,95668.95
2018-01-18T08:23:32.050Z,95702.73
2018-01-18T08:24:35.018Z,95686.69
2018-01-18T08:25:38.004Z,95618.00
2018-01-18T08:26:40.995Z,95688.95
2018-01-18T08:27:44.295Z,95658.59
2018-01-18T08:28:47.224Z,95696.30
2018-01-18T08:29:50.170Z,95668.27
2018-01-18T08:30:53.159Z,95686.37
2018-01-18T08:31:56.147Z,95638.70
2018-01-18T08:32:59.070Z,95663.19
2018-01-18T08:34:02.569Z,95709.87
2018-01-18T08:35:05.566Z,95610.59
2018-01-18T08:36:08.627Z,95646.09
2018-01-18T08:37:12.266Z,95637.98
2018-01-18T08:38:15.214Z,95627.23
2018-01-18T08:39:18.234Z,95633.95
2018-01-18T08:40:21.635Z,95640.77
2018-01-18T08:41:24.620Z,95643.33
2018-01-18T08:42:27.554Z,95654.95
2018-01-18T08:43:30.503Z,95647.84
2018-01-18T08:44:33.713Z,95630.78
2018-01-18T08:45:36.922Z,95627.13
2018-01-18T08:46:40.280Z,95654.08
2018-01-18T08:47:43.330Z,95696.52
2018-01-18T08:48:46.287Z,95640.70
2018-01-18T08:49:49.175Z,95647.95
2018-01-18T08:50:52.249Z,95635.84
2018-01-18T08:51:55.217Z,95598.16
2018-01-18T08:52:58.573Z,95647.13
2018-01-18T08:54:02.092Z,95663.80
2018-01-18T08:55:05.034Z,95652.92
2018-01-18T08:56:07.989Z,95636.31
2018-01-18T08:57:10.933Z,95648.48
2018-01-18T08:58:13.866Z,95605.61
2018-01-18T08:59:17.238Z,95631.03
2018-01-18T09:00:20.207Z,95662.20
2018-01-18T09:01:23.292Z,95652.58
2018-01-18T09:02:26.280Z,95627.63
2018-01-18T09:03:29.248Z,95602.73
2018-01-18T09:04:32.184Z,95575.94
2018-01-18T09:05:35.452Z,95601.16
2018-01-18T09:06:38.478Z,95599.20
2018-01-18T09:07:41.410Z,95580.64
2018-01-18T09:08:44.401Z,95565.05
2018-01-18T09:09:47.409Z,95574.97
2018-01-18T09:10:50.452Z,95581.17
2018-01-18T09:11:54.096Z,95558.82
2018-01-18T09:12:58.292Z,95551.33
2018-01-18T09:14:03.042Z,95568.24
2018-01-18T09:15:10.356Z,95574.77
2018-01-18T09:16:14.602Z,95562.52
2018-01-18T09:17:18.538Z,95557.19
2018-01-18T09:18:22.064Z,95553.52
2018-01-18T09:19:25.699Z,95582.11
2018-01-18T09:20:29.290Z,95554.34
2018-01-18T09:21:32.310Z,95578.28
2018-01-18T09:22:35.283Z,95526.48
2018-01-18T09:23:39.897Z,95559.53
2018-01-18T09:24:42.753Z,95549.45
2018-01-18T09:25:45.672Z,95577.61
2018-01-18T09:26:48.582Z,95540.18
2018-01-18T09:27:51.509Z,95529.95
2018-01-18T09:28:54.495Z,95537.76
2018-01-18T09:29:57.828Z,95501.84
2018-01-18T09:31:01.007Z,95538.64
2018-01-18T09:32:04.027Z,95500.00
2018-01-18T09:33:06.982Z,95547.52
2018-01-18T09:34:10.430Z,95546.62
2018-01-18T09:35:13.434Z,95528.23
2018-01-18T09:36:16.740Z,95533.91
2018-01-18T09:37:19.759Z,95511.23
2018-01-18T09:38:22.779Z,95507.48
2018-01-18T09:39:25.820Z,95566.81
2018-01-18T09:40:30.247Z,95542.70
2018-01-18T09:41:33.416Z,95518.45
2018-01-18T09:42:36.724Z,95530.81
2018-01-18T09:43:39.718Z,95514.13
2018-01-18T09:44:42.716Z,95498.32
2018-01-18T09:45:45.733Z,95534.41
2018-01-18T09:46:48.759Z,95525.56
2018-01-18T09:47:52.416Z,95479.99
2018-01-18T09:48:55.959Z,95497.59
2018-01-18T09:49:58.951Z,95544.59
2018-01-18T09:51:01.932Z,95543.65
2018-01-18T09:52:04.905Z,95481.53
2018-01-18T09:53:07.913Z,95512.54
2018-01-18T09:54:10.937Z,95499.84
2018-01-18T09:55:14.437Z,95466.66
2018-01-18T09:56:18.297Z,95466.48
2018-01-18T09:57:21.429Z,95496.63
2018-01-18T09:58:24.348Z,95489.08
2018-01-18T09:59:27.570Z,95532.70
2018-01-18T10:00:30.583Z,95507.36
2018-01-18T10:01:33.943Z,95530.08
2018-01-18T10:02:36.885Z,95540.18
2018-01-18T10:03:39.849Z,95553.66
2018-01-18T10:04:43.151Z,95573.45
2018-01-18T10:05:46.110Z,95513.52
2018-01-18T10:06:49.151Z,95507.85
2018-01-18T10:07:52.590Z,95497.29
2018-01-18T10:08:56.040Z,95542.50
2018-01-18T10:09:59.063Z,95505.45
2018-01-18T10:11:03.320Z,95476.03
2018-01-18T10:12:07.104Z,95481.87
2018-01-18T10:13:11.014Z,95513.07
2018-01-18T10:14:15.273Z,95480.94
2018-01-18T10:15:18.969Z,95450.32
2018-01-18T10:16:22.833Z,95480.72
2018-01-18T10:17:26.261Z,95376.55
2018-01-18T10:18:29.841Z,95222.07
2018-01-18T10:19:32.754Z,95472.06
2018-01-18T10:20:35.938Z,95365.05
2018-01-18T10:21:38.926Z,95351.22
2018-01-18T10:22:42.046Z,95430.20
2018-01-18T10:23:45.138Z,95511.83
2018-01-18T10:24:48.192Z,95488.33
2018-01-18T10:25:51.557Z,95507.30
2018-01-18T10:26:54.958Z,95463.45
2018-01-18T10:27:57.950Z,95479.72
2018-01-18T10:29:01.034Z,95496.26
2018-01-18T10:30:04.096Z,95489.92
2018-01-18T10:31:07.490Z,95519.42
2018-01-18T10:32:10.617Z,95406.17
2018-01-18T10:33:14.356Z,95502.91
2018-01-18T10:34:17.361Z,95524.39
2018-01-18T10:35:20.686Z,95536.50
2018-01-18T10:36:23.779Z,95498.17
2018-01-18T10:37:26.747Z,95510.05
2018-01-18T10:38:29.806Z,95402.99
2018-01-18T10:39:33.707Z,95448.22
2018-01-18T10:40:37.077Z,95389.68
2018-01-18T10:41:40.018Z,95378.07
2018-01-18T10:42:43.362Z,95469.77
2018-01-18T10:43:47.228Z,95217.25
2018-01-18T10:44:51.003Z,95412.51
2018-01-18T10:45:55.032Z,95526.86
2018-01-18T10:46:59.641Z,95475.22
2018-01-18T10:48:03.568Z,95538.97
2018-01-18T10:49:08.247Z,95472.34
2018-01-18T10:50:11.380Z,95559.11
2018-01-18T10:51:15.040Z,95551.69
2018-01-18T10:52:18.409Z,95513.63
2018-01-18T10:53:21.687Z,95535.78
2018-01-18T10:54:25.448Z,95568.55
2018-01-18T10:55:29.638Z,95555.52
2018-01-18T10:56:33.672Z,95515.10
2018-01-18T10:57:36.710Z,95592.62
2018-01-18T10:58:40.637Z,95389.32
2018-01-18T10:59:43.835Z,95555.75
2018-01-18T11:00:47.266Z,95382.47
2018-01-18T11:01:50.930Z,95454.80
2018-01-18T11:02:54.280Z,95435.13
2018-01-18T11:03:57.611Z,95467.44
2018-01-18T11:05:01.322Z,95493.34
2018-01-18T11:06:04.692Z,95542.02
2018-01-18T11:07:08.455Z,95555.46
2018-01-18T11:08:12.719Z,95603.25
2018-01-18T11:09:16.426Z,95546.27
2018-01-18T11:10:20.799Z,95596.20
2018-01-18T11:11:24.162Z,95564.45
2018-01-18T11:12:27.721Z,95628.34
2018-01-18T11:13:31.321Z,95618.16
2018-01-18T11:14:34.529Z,95651.41
2018-01-18T11:15:37.765Z,95611.06
2018-01-18T11:16:41.166Z,95695.06
2018-01-18T11:17:44.548Z,95685.85
2018-01-18T11:18:48.243Z,95671.95
2018-01-18T11:19:51.990Z,95725.22
2018-01-18T11:20:55.011Z,95657.10
2018-01-18T11:21:58.751Z,95674.85
2018-01-18T11:23:01.729Z,95643.52
2018-01-18T11:24:05.690Z,95648.81
2018-01-18T11:25:10.594Z,95712.69
2018-01-18T11:26:15.312Z,95637.02
2018-01-18T11:27:19.785Z,95712.45
2018-01-18T11:28:24.793Z,95648.98
2018-01-18T11:29:29.852Z,95683.91
2018-01-18T11:30:35.374Z,95630.84
2018-01-18T11:31:41.264Z,95702.60
2018-01-18T11:32:45.892Z,95681.05
2018-01-18T11:33:49.940Z,95725.16
2018-01-18T11:34:52.918Z,95716.97
2018-01-18T11:35:56.749Z,95679.95
2018-01-18T11:37:02.121Z,95600.97
2018-01-18T11:38:06.864Z,95608.80
2018-01-18T11:39:11.009Z,95695.56
2018-01-18T11:40:15.713Z,95693.72
2018-01-18T11:41:20.809Z,95774.20
2018-01-18T11:42:25.498Z,95664.78
2018-01-18T11:43:30.893Z,95535.39
2018-01-18T11:44:35.064Z,95665.72
2018-01-18T11:45:38.637Z,95775.78
2018-01-18T11:46:42.337Z,95742.83
2018-01-18T11:47:46.039Z,95699.58
2018-01-18T11:48:50.325Z,95676.80
2018-01-18T11:49:54.925Z,95730.44
2018-01-18T11:50:59.022Z,95711.88
2018-01-18T11:52:02.111Z,95771.59
2018-01-18T11:53:06.434Z,95769.98
2018-01-18T11:54:10.999Z,95779.80
2018-01-18T11:55:15.336Z,95676.59
2018-01-18T11:56:19.145Z,95761.50
2018-01-18T11:57:23.038Z,95588.91
2018-01-18T11:58:27.448Z,95834.97
2018-01-18T11:59:32.835Z,95820.58
2018-01-18T12:00:37.304Z,95861.83
2018-01-18T12:01:45.311Z,95833.87
2018-01-18T12:02:51.076Z,95800.23
2018-01-18T12:03:55.586Z,95789.52
2018-01-18T12:05:00.203Z,95799.16
2018-01-18T12:06:04.937Z,95775.25
2018-01-18T12:07:08.568Z,95734.50
2018-01-18T12:08:13.843Z,95812.14
2018-01-18T12:09:18.955Z,95749.41
2018-01-18T12:10:23.894Z,95767.05
2018-01-18T12:11:28.776Z,95840.03
2018-01-18T12:12:35.135Z,95831.59
2018-01-18T12:13:40.561Z,95717.39
2018-01-18T12:14:45.516Z,95646.84
2018-01-18T12:15:51.702Z,95904.36
2018-01-18T12:16:57.100Z,95792.47
2018-01-18T12:18:02.362Z,95866.62
2018-01-18T12:19:07.251Z,95917.32
2018-01-18T12:20:11.327Z,95891.55
2018-01-18T12:21:15.790Z,95940.77
2018-01-18T12:22:20.554Z,95822.69
2018-01-18T12:23:26.285Z,95836.77
2018-01-18T12:24:31.406Z,95913.64
2018-01-18T12:25:36.637Z,95943.03